Green Island, Australia
Current Conditions -  °F | °C
As of 1:00 PM on Friday 28 Nov 2014 (Local Time) from YBCS Reporting Station
Few Clouds Few Clouds  
Wind Chill: 90°   Ceiling: Unl
Heat Index: 90°   Visibility: 6mi
Dew Point: 61°   Wind: 13mph
Humidity: 38%   Direction: 110°ESE
Pressure: 29.83"   Gusts: NA
Location:  16.77°S, 145.97°E
Report Text: YBCS 280300Z 11011KT 9999 FEW030 32/16 Q1010 NOSIG
Loading
Personal Weather Stations






























Interactive Weather Map New forecast layout! Learn more

10-Day Weather Forecast

Advertisements
Track Severe Weather on mobile